Time;durP1;ratioP1;P1;durP2;ratioP2;P2;SDS_P1;SDS_P2;PMS_P1;PMS_P2;Temp;Humidity;BMP_temperature;BMP_pressure;BME280_temperature;BME280_humidity;BME280_pressure;Samples;Min_cycle;Max_cycle;Signal;HPM_P1;HPM_P2
2023/12/15 00:01:16;;;;;;;7.95;3.05;;;6.80;99.90;;;;;;5024392;28;20049;-71
2023/12/15 00:03:42;;;;;;;7.65;2.95;;;6.90;99.90;;;;;;5017067;28;20440;-71
2023/12/15 00:06:08;;;;;;;2.88;1.70;;;6.90;99.90;;;;;;5018044;28;20099;-71
2023/12/15 00:08:34;;;;;;;2.78;2.35;;;6.90;99.90;;;;;;5024410;28;20390;-71
2023/12/15 00:11:00;;;;;;;8.63;2.58;;;6.90;99.90;;;;;;5016653;28;20045;-71
2023/12/15 00:13:25;;;;;;;3.38;1.65;;;6.90;99.90;;;;;;5028757;28;20044;-71
2023/12/15 00:15:53;;;;;;;3.53;2.33;;;6.90;99.90;;;;;;5022372;28;20036;-71
2023/12/15 00:18:19;;;;;;;3.17;2.50;;;6.90;99.90;;;;;;5022828;28;20059;-72
2023/12/15 00:20:45;;;;;;;3.17;2.83;;;7.00;99.90;;;;;;5024239;28;20041;-69
2023/12/15 00:23:11;;;;;;;3.15;2.55;;;7.00;99.90;;;;;;5043110;28;20069;-71
2023/12/15 00:25:37;;;;;;;4.90;2.40;;;7.00;99.90;;;;;;5011440;28;20048;-71
2023/12/15 00:28:03;;;;;;;4.63;2.97;;;7.10;99.90;;;;;;5025847;28;20033;-71
2023/12/15 00:30:28;;;;;;;4.13;2.75;;;7.10;99.90;;;;;;5030366;28;20128;-71
2023/12/15 00:32:54;;;;;;;5.68;2.72;;;7.10;99.90;;;;;;5022994;28;20047;-71
2023/12/15 00:35:20;;;;;;;4.57;3.03;;;7.10;99.90;;;;;;5011133;28;20041;-71
2023/12/15 00:37:45;;;;;;;3.92;2.45;;;7.10;99.90;;;;;;5025897;28;20461;-71
2023/12/15 00:40:11;;;;;;;6.97;3.13;;;7.10;99.90;;;;;;5023019;28;20061;-71
2023/12/15 00:42:37;;;;;;;3.60;2.78;;;7.20;99.90;;;;;;5013221;28;20033;-71
2023/12/15 00:45:03;;;;;;;3.80;2.30;;;7.20;99.90;;;;;;5024243;28;20040;-71
2023/12/15 00:47:29;;;;;;;7.40;3.00;;;7.20;99.90;;;;;;5022102;28;20053;-71
2023/12/15 00:49:54;;;;;;;4.00;2.35;;;7.20;99.90;;;;;;5020996;28;20140;-71
2023/12/15 00:52:20;;;;;;;4.75;3.15;;;7.20;99.90;;;;;;5008442;28;20038;-72
2023/12/15 00:54:46;;;;;;;9.00;3.42;;;7.20;99.90;;;;;;5011697;28;20478;-71
2023/12/15 00:57:12;;;;;;;3.85;2.03;;;7.20;99.90;;;;;;5025550;28;20349;-71
2023/12/15 00:59:37;;;;;;;4.95;3.50;;;7.20;99.90;;;;;;5017114;28;20044;-71
2023/12/15 01:02:05;;;;;;;3.75;2.88;;;7.20;99.90;;;;;;5017797;28;20049;-71
2023/12/15 01:04:32;;;;;;;4.30;2.60;;;7.20;99.90;;;;;;5003168;28;20133;-72
2023/12/15 01:06:57;;;;;;;5.63;3.50;;;7.20;99.90;;;;;;5016418;28;20037;-72
2023/12/15 01:09:23;;;;;;;4.07;3.25;;;7.30;99.90;;;;;;5020436;28;20056;-71
2023/12/15 01:11:49;;;;;;;5.68;2.83;;;7.30;99.90;;;;;;5008496;28;20067;-71
2023/12/15 01:14:15;;;;;;;5.20;3.13;;;7.30;99.90;;;;;;5018169;28;20048;-71
2023/12/15 01:16:48;;;;;;;4.88;3.30;;;7.30;99.90;;;;;;5022270;28;20045;-72
2023/12/15 01:19:15;;;;;;;3.15;2.22;;;7.40;99.90;;;;;;5024477;28;20047;-72
2023/12/15 01:21:41;;;;;;;4.43;2.80;;;7.40;99.90;;;;;;5025076;28;20439;-71
2023/12/15 01:24:06;;;;;;;11.38;3.63;;;7.30;99.90;;;;;;5025918;28;20041;-72
2023/12/15 01:26:32;;;;;;;4.50;3.20;;;7.40;99.90;;;;;;5028614;28;20119;-72
2023/12/15 01:28:58;;;;;;;4.30;3.20;;;7.40;99.90;;;;;;5022770;28;20037;-72
2023/12/15 01:31:23;;;;;;;5.47;3.50;;;7.40;99.90;;;;;;5025446;28;20128;-71
2023/12/15 01:33:49;;;;;;;5.90;3.85;;;7.40;99.90;;;;;;5034119;28;20049;-72
2023/12/15 01:36:16;;;;;;;5.40;3.70;;;7.40;99.90;;;;;;5025667;28;20032;-72
2023/12/15 01:38:42;;;;;;;3.83;3.10;;;7.40;99.90;;;;;;5024853;28;20497;-72
2023/12/15 01:41:08;;;;;;;6.38;4.30;;;7.50;99.90;;;;;;5011589;28;20033;-72
2023/12/15 01:43:34;;;;;;;4.25;3.15;;;7.50;99.90;;;;;;5023183;28;20158;-72
2023/12/15 01:45:59;;;;;;;4.45;2.88;;;7.40;99.90;;;;;;5019015;28;20489;-72
2023/12/15 01:48:26;;;;;;;6.95;3.72;;;7.50;99.90;;;;;;5025660;28;20040;-72
2023/12/15 01:50:52;;;;;;;4.25;2.83;;;7.50;99.90;;;;;;5009626;28;20041;-72
2023/12/15 01:53:18;;;;;;;6.00;3.38;;;7.50;99.90;;;;;;5022242;28;20041;-72
2023/12/15 01:55:43;;;;;;;4.68;3.05;;;7.50;99.90;;;;;;5031133;28;20405;-72
2023/12/15 01:58:12;;;;;;;5.35;3.05;;;7.50;99.90;;;;;;5015591;28;20032;-72
2023/12/15 02:00:38;;;;;;;5.55;3.42;;;7.50;99.90;;;;;;5027271;28;20486;-72
2023/12/15 02:03:04;;;;;;;10.23;3.92;;;7.60;99.90;;;;;;5021682;28;20060;-72
2023/12/15 02:05:30;;;;;;;7.43;3.88;;;7.50;99.90;;;;;;5025093;28;20107;-72
2023/12/15 02:07:55;;;;;;;7.25;3.78;;;7.60;99.90;;;;;;5035307;28;20065;-72
2023/12/15 02:10:21;;;;;;;6.47;4.20;;;7.60;99.90;;;;;;5029146;28;20045;-72
2023/12/15 02:12:47;;;;;;;5.10;3.22;;;7.60;99.90;;;;;;5021665;28;20099;-72
2023/12/15 02:15:12;;;;;;;12.70;3.33;;;7.70;99.90;;;;;;5014125;28;20040;-72
2023/12/15 02:17:39;;;;;;;3.53;1.98;;;7.70;99.90;;;;;;5022845;28;20120;-72
2023/12/15 02:20:06;;;;;;;4.32;3.22;;;7.70;99.90;;;;;;5025625;28;20072;-72
2023/12/15 02:22:32;;;;;;;7.13;3.55;;;7.70;99.90;;;;;;5023411;28;20033;-72
2023/12/15 02:24:57;;;;;;;4.95;3.15;;;7.70;99.90;;;;;;5042806;28;20040;-72
2023/12/15 02:27:23;;;;;;;7.07;4.70;;;7.70;99.90;;;;;;5020396;28;20413;-72
2023/12/15 02:29:49;;;;;;;5.18;3.85;;;7.70;99.90;;;;;;5027610;28;20045;-72
2023/12/15 02:32:14;;;;;;;5.25;3.00;;;7.80;99.90;;;;;;5015091;28;20353;-72
2023/12/15 02:34:40;;;;;;;10.57;3.80;;;7.80;99.90;;;;;;5025178;28;20038;-72
2023/12/15 02:37:06;;;;;;;11.20;4.50;;;7.70;99.90;;;;;;5022181;28;20044;-72
2023/12/15 02:39:32;;;;;;;5.53;3.45;;;7.80;99.90;;;;;;5025702;28;20048;-72
2023/12/15 02:41:58;;;;;;;6.00;3.40;;;7.80;99.90;;;;;;5023502;28;20037;-72
2023/12/15 02:44:24;;;;;;;5.32;2.65;;;7.80;99.90;;;;;;5027884;28;20036;-72
2023/12/15 02:46:49;;;;;;;5.07;3.95;;;7.80;99.90;;;;;;5024024;28;20513;-72
2023/12/15 02:49:18;;;;;;;6.78;4.88;;;7.80;99.90;;;;;;5039277;28;20080;-72
2023/12/15 02:51:44;;;;;;;8.70;3.40;;;7.90;99.90;;;;;;5020768;28;20094;-72
2023/12/15 02:54:10;;;;;;;7.22;3.97;;;7.90;99.90;;;;;;5024514;28;20047;-72
2023/12/15 02:56:36;;;;;;;6.45;3.45;;;7.90;99.90;;;;;;5011449;28;20037;-72
2023/12/15 02:59:03;;;;;;;5.97;4.20;;;7.90;99.90;;;;;;5042017;28;20041;-72
2023/12/15 03:01:29;;;;;;;5.22;3.20;;;7.90;99.90;;;;;;5023259;28;20056;-72
2023/12/15 03:03:54;;;;;;;6.28;3.70;;;7.90;99.90;;;;;;5021610;28;20049;-72
2023/12/15 03:06:20;;;;;;;7.43;4.32;;;7.90;99.90;;;;;;5025160;28;20169;-72
2023/12/15 03:08:46;;;;;;;6.07;3.30;;;7.90;99.90;;;;;;5024978;28;20507;-72
2023/12/15 03:11:12;;;;;;;6.28;3.85;;;7.90;99.90;;;;;;5020556;28;20038;-72
2023/12/15 03:13:38;;;;;;;8.65;3.30;;;7.90;99.90;;;;;;5017277;28;20029;-72
2023/12/15 03:16:10;;;;;;;6.22;3.92;;;8.00;99.90;;;;;;5030358;28;20107;-72
2023/12/15 03:18:38;;;;;;;6.55;5.05;;;8.00;99.90;;;;;;5035259;28;20464;-72
2023/12/15 03:21:04;;;;;;;8.05;4.03;;;8.00;99.90;;;;;;5043552;28;20048;-73
2023/12/15 03:23:30;;;;;;;5.18;3.95;;;8.00;99.90;;;;;;5012809;28;20037;-72
2023/12/15 03:25:57;;;;;;;5.22;3.45;;;8.00;99.90;;;;;;5027672;28;20457;-73
2023/12/15 03:28:23;;;;;;;7.25;3.90;;;8.00;99.90;;;;;;5008683;28;20444;-72
2023/12/15 03:30:49;;;;;;;7.55;3.60;;;8.00;99.90;;;;;;5022668;28;20049;-72
2023/12/15 03:33:15;;;;;;;6.90;3.72;;;8.00;99.90;;;;;;5028062;28;20124;-72
2023/12/15 03:35:40;;;;;;;6.70;3.08;;;8.00;99.90;;;;;;5029936;28;20180;-72
2023/12/15 03:38:06;;;;;;;5.10;3.72;;;8.00;99.90;;;;;;5027069;28;20243;-72
2023/12/15 03:40:32;;;;;;;6.07;2.90;;;8.00;99.90;;;;;;5027894;28;20424;-72
2023/12/15 03:42:58;;;;;;;6.30;3.22;;;8.00;99.90;;;;;;5029891;28;20116;-72
2023/12/15 03:45:25;;;;;;;4.93;3.50;;;8.00;99.90;;;;;;5025444;28;20405;-72
2023/12/15 03:47:51;;;;;;;7.57;3.65;;;8.00;99.90;;;;;;5034620;28;20068;-72
2023/12/15 03:50:17;;;;;;;5.82;3.83;;;8.10;99.90;;;;;;5020639;28;20102;-72
2023/12/15 03:52:42;;;;;;;11.77;3.92;;;8.00;99.90;;;;;;5043375;28;20447;-72
2023/12/15 03:55:08;;;;;;;9.48;4.00;;;8.00;99.90;;;;;;5025021;28;20529;-72
2023/12/15 03:57:34;;;;;;;6.03;3.03;;;8.00;99.90;;;;;;5039249;28;20164;-72
2023/12/15 04:00:00;;;;;;;5.00;2.80;;;8.00;99.90;;;;;;5013589;28;20049;-72
2023/12/15 04:02:26;;;;;;;6.25;3.83;;;8.00;99.90;;;;;;5021807;28;20053;-72
2023/12/15 04:04:51;;;;;;;7.82;2.95;;;8.00;99.90;;;;;;5022649;28;20611;-72
2023/12/15 04:07:17;;;;;;;14.27;4.63;;;8.00;99.90;;;;;;5023440;28;20029;-72
2023/12/15 04:09:43;;;;;;;6.50;2.90;;;8.00;99.90;;;;;;5027072;28;20048;-72
2023/12/15 04:12:09;;;;;;;6.20;3.70;;;8.00;99.90;;;;;;5022613;28;20084;-72
2023/12/15 04:14:35;;;;;;;4.63;3.20;;;8.10;99.90;;;;;;5020555;28;20460;-72
2023/12/15 04:17:00;;;;;;;6.43;3.53;;;8.00;99.90;;;;;;5031349;28;20400;-72
2023/12/15 04:19:26;;;;;;;5.90;3.75;;;8.00;99.90;;;;;;5020348;28;20072;-72
2023/12/15 04:21:52;;;;;;;5.05;2.42;;;8.00;99.90;;;;;;5026546;28;20461;-72
2023/12/15 04:24:18;;;;;;;4.85;2.97;;;8.00;99.90;;;;;;5023613;28;20454;-72
2023/12/15 04:26:44;;;;;;;11.02;3.00;;;8.00;99.90;;;;;;5024398;28;20052;-72
2023/12/15 04:29:10;;;;;;;5.75;3.58;;;8.00;99.90;;;;;;5008903;28;20416;-72
2023/12/15 04:31:36;;;;;;;4.90;3.13;;;8.00;99.90;;;;;;5023468;28;20079;-71
2023/12/15 04:34:02;;;;;;;10.25;4.25;;;7.90;99.90;;;;;;5008926;28;20072;-72
2023/12/15 04:36:27;;;;;;;6.65;3.33;;;8.00;99.90;;;;;;5021941;28;20138;-71
2023/12/15 04:38:53;;;;;;;9.18;4.40;;;8.00;99.90;;;;;;5016497;28;20045;-71
2023/12/15 04:41:20;;;;;;;8.93;3.65;;;8.00;99.90;;;;;;5025210;28;20044;-71
2023/12/15 04:43:47;;;;;;;6.70;3.60;;;7.90;99.90;;;;;;5028389;28;20441;-71
2023/12/15 04:46:21;;;;;;;6.03;3.20;;;8.00;99.90;;;;;;5023308;28;20029;-71
2023/12/15 04:48:47;;;;;;;6.85;3.95;;;8.00;99.90;;;;;;5018282;28;20497;-71
2023/12/15 04:51:13;;;;;;;8.05;4.28;;;8.00;99.90;;;;;;5022930;28;20045;-71
2023/12/15 04:53:39;;;;;;;4.43;3.30;;;8.00;99.90;;;;;;5032299;28;20043;-71
2023/12/15 04:56:05;;;;;;;12.32;4.22;;;8.00;99.90;;;;;;5010526;28;20041;-72
2023/12/15 04:58:31;;;;;;;5.25;3.28;;;8.00;99.90;;;;;;5042131;28;20041;-72
2023/12/15 05:00:56;;;;;;;6.20;3.40;;;7.90;99.90;;;;;;5018926;28;20037;-72
2023/12/15 05:03:23;;;;;;;3.47;2.97;;;7.90;99.90;;;;;;5024946;28;20056;-72
2023/12/15 05:05:49;;;;;;;5.15;2.90;;;7.90;99.90;;;;;;5027004;28;20055;-72
2023/12/15 05:08:14;;;;;;;10.00;3.05;;;7.90;99.90;;;;;;5028180;28;20041;-72
2023/12/15 05:10:40;;;;;;;6.90;4.18;;;7.90;99.90;;;;;;5025155;28;20030;-72
2023/12/15 05:13:06;;;;;;;9.52;2.97;;;7.90;99.90;;;;;;5025563;28;20114;-72
2023/12/15 05:15:32;;;;;;;6.78;4.20;;;7.90;99.90;;;;;;5017408;28;20044;-72
2023/12/15 05:17:57;;;;;;;5.53;2.95;;;7.90;99.90;;;;;;5023342;28;20043;-72
2023/12/15 05:20:23;;;;;;;6.70;3.50;;;7.90;99.90;;;;;;5028431;28;20038;-71
2023/12/15 05:22:49;;;;;;;4.15;2.38;;;7.90;99.90;;;;;;5029116;28;20037;-71
2023/12/15 05:25:15;;;;;;;5.55;3.72;;;7.90;99.90;;;;;;5020242;28;20045;-71
2023/12/15 05:27:41;;;;;;;5.10;2.72;;;7.90;99.90;;;;;;5028431;28;20033;-71
2023/12/15 05:30:07;;;;;;;5.78;3.38;;;7.80;99.90;;;;;;5027787;28;20048;-71
2023/12/15 05:32:33;;;;;;;6.68;3.60;;;7.80;99.90;;;;;;5030428;28;20045;-71
2023/12/15 05:34:58;;;;;;;4.40;2.70;;;7.80;99.90;;;;;;5019388;28;20047;-71
2023/12/15 05:37:24;;;;;;;5.95;3.80;;;7.80;99.90;;;;;;5042823;28;20079;-71
2023/12/15 05:39:50;;;;;;;6.43;3.97;;;7.70;99.90;;;;;;5023767;28;20033;-71
2023/12/15 05:42:16;;;;;;;4.65;2.65;;;7.70;99.90;;;;;;5031646;28;20112;-71
2023/12/15 05:44:41;;;;;;;6.68;3.63;;;7.70;99.90;;;;;;5026770;28;20041;-71
2023/12/15 05:47:07;;;;;;;6.88;2.28;;;7.70;99.90;;;;;;5019387;28;20641;-72
2023/12/15 05:49:40;;;;;;;6.75;4.03;;;7.70;99.90;;;;;;5031736;28;20037;-72
2023/12/15 05:52:08;;;;;;;6.60;4.05;;;7.70;99.90;;;;;;5012399;28;20106;-72
2023/12/15 05:54:34;;;;;;;10.85;4.20;;;7.70;99.90;;;;;;5014399;28;20052;-72
2023/12/15 05:57:00;;;;;;;5.82;3.28;;;7.70;99.90;;;;;;5028979;28;20055;-71
2023/12/15 05:59:26;;;;;;;4.90;3.05;;;7.70;99.90;;;;;;5029433;28;20463;-71
2023/12/15 06:01:52;;;;;;;9.93;3.75;;;7.70;99.90;;;;;;5023870;28;20120;-71
2023/12/15 06:04:18;;;;;;;4.38;2.90;;;7.70;99.90;;;;;;5024176;28;20047;-71
2023/12/15 06:06:43;;;;;;;6.05;3.08;;;7.70;99.90;;;;;;5027654;28;20029;-72
2023/12/15 06:09:09;;;;;;;5.18;2.83;;;7.70;99.90;;;;;;5027442;28;20139;-72
2023/12/15 06:11:44;;;;;;;5.50;3.03;;;7.70;99.90;;;;;;5025781;28;20078;-71
2023/12/15 06:14:10;;;;;;;9.52;4.93;;;7.70;99.90;;;;;;5022979;28;20044;-72
2023/12/15 06:16:36;;;;;;;6.97;3.30;;;7.60;99.90;;;;;;5034770;28;20403;-72
2023/12/15 06:19:02;;;;;;;6.80;3.47;;;7.60;99.90;;;;;;5031434;28;20137;-72
2023/12/15 06:21:28;;;;;;;4.72;2.72;;;7.50;99.90;;;;;;5022772;28;20195;-72
2023/12/15 06:23:55;;;;;;;6.90;3.10;;;7.50;99.90;;;;;;5024315;28;20132;-72
2023/12/15 06:26:22;;;;;;;10.88;2.55;;;7.40;99.90;;;;;;5009494;28;20033;-72
2023/12/15 06:28:48;;;;;;;5.57;3.53;;;7.40;99.90;;;;;;5030380;28;20540;-72
2023/12/15 06:31:14;;;;;;;4.35;2.80;;;7.50;99.90;;;;;;5015522;28;20037;-72
2023/12/15 06:33:40;;;;;;;5.57;3.05;;;7.50;99.90;;;;;;5030645;28;20155;-72
2023/12/15 06:36:07;;;;;;;3.20;2.25;;;7.50;99.90;;;;;;5025279;28;20033;-72
2023/12/15 06:38:34;;;;;;;3.50;3.05;;;7.50;99.90;;;;;;5027895;28;20041;-72
2023/12/15 06:41:00;;;;;;;10.68;3.42;;;7.50;99.90;;;;;;5026368;28;20443;-72
2023/12/15 06:43:26;;;;;;;6.47;4.15;;;7.50;99.90;;;;;;5015082;28;20036;-72
2023/12/15 06:45:53;;;;;;;6.60;3.70;;;7.50;99.90;;;;;;5045191;28;20146;-72
2023/12/15 06:48:18;;;;;;;13.98;4.80;;;7.60;99.90;;;;;;5023523;28;20044;-72
2023/12/15 06:50:44;;;;;;;6.53;4.22;;;7.60;99.90;;;;;;5007142;28;20419;-72
2023/12/15 06:53:10;;;;;;;8.05;3.53;;;7.60;99.90;;;;;;5020599;28;20049;-72
2023/12/15 06:55:36;;;;;;;10.07;2.75;;;7.60;99.90;;;;;;5007937;28;20037;-72
2023/12/15 06:58:01;;;;;;;9.13;3.97;;;7.60;99.90;;;;;;5024449;28;20107;-72
2023/12/15 07:00:27;;;;;;;8.25;4.10;;;7.60;99.90;;;;;;5028267;28;20037;-71
2023/12/15 07:02:53;;;;;;;7.07;4.07;;;7.50;99.90;;;;;;5009445;28;20440;-71
2023/12/15 07:05:25;;;;;;;7.38;3.53;;;7.50;99.90;;;;;;5024507;28;20045;-71
2023/12/15 07:07:50;;;;;;;9.45;3.70;;;7.60;99.90;;;;;;5023510;28;20037;-71
2023/12/15 07:10:16;;;;;;;5.00;2.78;;;7.60;99.90;;;;;;5040139;28;20052;-71
2023/12/15 07:12:42;;;;;;;5.78;3.40;;;7.50;99.90;;;;;;5025591;28;20125;-71
2023/12/15 07:15:08;;;;;;;8.75;4.00;;;7.60;99.90;;;;;;5015342;28;20136;-72
2023/12/15 07:17:34;;;;;;;8.52;2.88;;;7.60;99.90;;;;;;5027323;28;20139;-71
2023/12/15 07:20:00;;;;;;;8.25;3.53;;;7.60;99.90;;;;;;5013228;28;20441;-70
2023/12/15 07:22:26;;;;;;;7.20;4.05;;;7.60;99.90;;;;;;5021671;28;20094;-71
2023/12/15 07:24:51;;;;;;;86.78;46.22;;;7.60;99.90;;;;;;5024324;28;20114;-70
2023/12/15 07:27:17;;;;;;;5.97;2.92;;;7.60;99.90;;;;;;5021486;28;20037;-71
2023/12/15 07:29:43;;;;;;;7.85;3.10;;;7.60;99.90;;;;;;5027996;28;20033;-71
2023/12/15 07:32:08;;;;;;;4.75;3.13;;;7.60;99.90;;;;;;5016996;28;20258;-70
2023/12/15 07:34:34;;;;;;;7.32;2.97;;;7.60;99.90;;;;;;5024668;28;20072;-71
2023/12/15 07:37:00;;;;;;;8.43;4.07;;;7.60;99.90;;;;;;5038429;28;20450;-70
2023/12/15 07:39:25;;;;;;;9.30;4.20;;;7.60;99.90;;;;;;5018485;28;20628;-71
2023/12/15 07:41:51;;;;;;;3.50;2.50;;;7.60;99.90;;;;;;5022361;28;20056;-70
2023/12/15 07:44:17;;;;;;;5.25;2.83;;;7.60;99.90;;;;;;5024993;28;20124;-71
2023/12/15 07:46:43;;;;;;;6.85;3.38;;;7.50;99.90;;;;;;5011934;28;20044;-70
2023/12/15 07:49:10;;;;;;;4.53;2.80;;;7.50;99.90;;;;;;5023820;28;20051;-71
2023/12/15 07:51:36;;;;;;;4.32;2.53;;;7.50;99.90;;;;;;5027472;28;20041;-71
2023/12/15 07:54:02;;;;;;;6.60;2.63;;;7.50;99.90;;;;;;5028005;28;20049;-71
2023/12/15 07:56:29;;;;;;;4.82;2.25;;;7.40;99.90;;;;;;5025947;28;20052;-71
2023/12/15 07:58:56;;;;;;;9.68;3.58;;;7.50;99.90;;;;;;5024982;28;20042;-70
2023/12/15 08:01:24;;;;;;;4.65;2.50;;;7.40;99.90;;;;;;5034130;28;20489;-71
2023/12/15 08:03:50;;;;;;;7.18;3.22;;;7.30;99.90;;;;;;5023755;28;20169;-72
2023/12/15 08:06:17;;;;;;;8.40;3.15;;;7.40;99.90;;;;;;5037993;28;20096;-71
2023/12/15 08:08:45;;;;;;;6.60;3.20;;;7.40;99.90;;;;;;5022695;28;20043;-71
2023/12/15 08:11:11;;;;;;;5.60;2.97;;;7.30;99.90;;;;;;5011118;28;20179;-71
2023/12/15 08:13:38;;;;;;;5.07;2.58;;;7.40;99.90;;;;;;5025901;28;20033;-71
2023/12/15 08:16:04;;;;;;;7.38;3.13;;;7.40;99.90;;;;;;5023276;28;20034;-71
2023/12/15 08:18:30;;;;;;;4.75;2.22;;;7.40;99.90;;;;;;5021255;28;20043;-71
2023/12/15 08:21:00;;;;;;;6.60;3.03;;;7.40;99.90;;;;;;5019529;28;20040;-71
2023/12/15 08:23:26;;;;;;;6.07;3.28;;;7.40;99.90;;;;;;5010452;28;20445;-71
2023/12/15 08:25:52;;;;;;;6.95;3.22;;;7.40;99.90;;;;;;5019180;28;20029;-71
2023/12/15 08:28:20;;;;;;;6.05;2.08;;;7.50;99.90;;;;;;5011507;28;20107;-71
2023/12/15 08:30:46;;;;;;;4.10;2.22;;;7.40;99.90;;;;;;5019059;28;20036;-70
2023/12/15 08:33:12;;;;;;;7.93;2.63;;;7.40;99.90;;;;;;5018285;28;20055;-71
2023/12/15 08:35:38;;;;;;;3.72;2.15;;;7.50;99.90;;;;;;5019385;28;20033;-71
2023/12/15 08:38:04;;;;;;;4.47;2.25;;;7.40;99.90;;;;;;5005182;28;20041;-71
2023/12/15 08:40:30;;;;;;;4.68;2.38;;;7.40;99.90;;;;;;5014817;28;20461;-71
2023/12/15 08:42:55;;;;;;;4.93;2.30;;;7.50;99.90;;;;;;5028192;28;20456;-71
2023/12/15 08:45:21;;;;;;;3.22;2.17;;;7.50;99.90;;;;;;5024012;28;20493;-71
2023/12/15 08:47:48;;;;;;;3.20;2.30;;;7.60;99.90;;;;;;5024618;28;20400;-70
2023/12/15 08:50:14;;;;;;;7.32;3.28;;;7.70;99.90;;;;;;5024897;28;20130;-71
2023/12/15 08:52:43;;;;;;;12.20;3.00;;;7.70;99.90;;;;;;5021364;28;20045;-71
2023/12/15 08:55:09;;;;;;;3.33;2.17;;;7.80;99.90;;;;;;5016674;28;20049;-70
2023/12/15 08:57:35;;;;;;;3.30;1.70;;;7.80;99.90;;;;;;5025884;28;20041;-70
2023/12/15 09:00:03;;;;;;;3.40;1.85;;;7.90;99.90;;;;;;5008626;28;20095;-70
2023/12/15 09:02:29;;;;;;;7.05;2.60;;;7.90;99.90;;;;;;5008304;28;20136;-70
2023/12/15 09:04:54;;;;;;;8.75;2.42;;;8.00;99.90;;;;;;5022814;28;20336;-70
2023/12/15 09:07:20;;;;;;;9.73;1.95;;;8.00;99.90;;;;;;5014355;28;20040;-70
2023/12/15 09:09:46;;;;;;;7.15;2.42;;;8.10;99.90;;;;;;5018308;28;20474;-70
2023/12/15 09:12:12;;;;;;;6.53;1.80;;;8.10;99.90;;;;;;5027050;28;20059;-70
2023/12/15 09:14:38;;;;;;;8.57;2.85;;;8.20;99.90;;;;;;5023394;28;20122;-70
2023/12/15 09:17:05;;;;;;;3.00;1.52;;;8.20;99.90;;;;;;5006749;28;20546;-70
2023/12/15 09:19:31;;;;;;;4.53;2.33;;;8.30;99.90;;;;;;5024878;28;20570;-70
2023/12/15 09:21:57;;;;;;;2.17;1.48;;;8.30;99.90;;;;;;5010640;28;20496;-70
2023/12/15 09:24:23;;;;;;;3.97;1.90;;;8.30;99.90;;;;;;5022544;28;20083;-71
2023/12/15 09:26:49;;;;;;;4.57;2.08;;;8.40;99.90;;;;;;5001864;28;20037;-72
2023/12/15 09:29:15;;;;;;;5.45;2.00;;;8.40;99.90;;;;;;5021603;28;20049;-70
2023/12/15 09:31:42;;;;;;;3.97;1.70;;;8.50;99.90;;;;;;5024679;28;20076;-71
2023/12/15 09:34:07;;;;;;;3.38;1.50;;;8.50;99.90;;;;;;5016675;28;20117;-70
2023/12/15 09:36:34;;;;;;;5.03;1.90;;;8.50;99.90;;;;;;5036778;28;20044;-71
2023/12/15 09:39:00;;;;;;;5.68;2.08;;;8.60;99.90;;;;;;5023266;28;20046;-71
2023/12/15 09:41:28;;;;;;;3.92;2.00;;;8.60;99.90;;;;;;5011265;28;20474;-71
2023/12/15 09:43:54;;;;;;;4.63;2.00;;;8.70;99.90;;;;;;5026765;28;20490;-71
2023/12/15 09:46:21;;;;;;;5.70;1.58;;;8.70;99.90;;;;;;5024601;28;20052;-70
2023/12/15 09:48:49;;;;;;;5.03;1.95;;;8.70;99.90;;;;;;5032248;28;20037;-70
2023/12/15 09:51:22;;;;;;;3.85;1.23;;;8.70;99.90;;;;;;5029237;28;20052;-70
2023/12/15 09:53:49;;;;;;;10.00;1.98;;;8.80;99.90;;;;;;5027726;28;20056;-70
2023/12/15 09:56:16;;;;;;;4.97;0.93;;;8.80;99.90;;;;;;5009815;28;20477;-71
2023/12/15 09:58:42;;;;;;;4.03;2.00;;;8.80;99.90;;;;;;5014571;28;20063;-71
2023/12/15 10:01:12;;;;;;;10.63;1.50;;;8.90;99.90;;;;;;5026581;28;20049;-71
2023/12/15 10:03:39;;;;;;;5.40;1.52;;;8.90;99.90;;;;;;5022828;28;20421;-71
2023/12/15 10:06:06;;;;;;;11.60;1.73;;;8.90;99.90;;;;;;5023786;28;20048;-70
2023/12/15 10:08:43;;;;;;;2.13;1.13;;;8.90;99.90;;;;;;5022119;28;20029;-71
2023/12/15 10:11:09;;;;;;;6.22;1.58;;;9.00;99.90;;;;;;5028457;28;20051;-71
2023/12/15 10:13:35;;;;;;;4.13;0.93;;;9.00;99.90;;;;;;5014293;28;20116;-71
2023/12/15 10:16:00;;;;;;;3.15;1.33;;;9.00;99.90;;;;;;5028177;28;20167;-71
2023/12/15 10:18:27;;;;;;;8.88;2.58;;;9.10;99.90;;;;;;5029981;28;20532;-71
2023/12/15 10:20:55;;;;;;;4.00;1.70;;;9.10;99.90;;;;;;5028013;28;20190;-72
2023/12/15 10:23:29;;;;;;;3.00;0.98;;;9.20;99.90;;;;;;5024333;28;20040;-71
2023/12/15 10:25:58;;;;;;;2.53;1.05;;;9.20;99.90;;;;;;5027024;28;20029;-72
2023/12/15 10:28:24;;;;;;;7.18;1.52;;;9.30;99.90;;;;;;5019608;28;20045;-72
2023/12/15 10:30:50;;;;;;;3.28;0.95;;;9.30;99.90;;;;;;5026406;28;20044;-71
2023/12/15 10:33:18;;;;;;;2.28;0.93;;;9.30;99.90;;;;;;5032724;28;20045;-71
2023/12/15 10:35:47;;;;;;;9.82;1.05;;;9.30;99.90;;;;;;5013173;28;20595;-70
2023/12/15 10:38:16;;;;;;;2.75;1.10;;;9.30;99.90;;;;;;5027611;28;20067;-70
2023/12/15 10:40:43;;;;;;;8.63;1.05;;;9.40;99.90;;;;;;5037272;28;20038;-71
2023/12/15 10:43:10;;;;;;;5.05;1.10;;;9.40;99.90;;;;;;5007705;28;20456;-71
2023/12/15 10:45:36;;;;;;;3.45;0.90;;;9.40;99.90;;;;;;5028895;28;20115;-70
2023/12/15 10:48:03;;;;;;;5.35;1.55;;;9.40;99.90;;;;;;5019683;28;20473;-71
2023/12/15 10:50:30;;;;;;;8.70;1.45;;;9.40;99.90;;;;;;5024900;28;20042;-72
2023/12/15 10:52:57;;;;;;;5.97;0.75;;;9.40;99.90;;;;;;5026340;28;20526;-71
2023/12/15 10:55:26;;;;;;;4.65;1.17;;;9.40;99.90;;;;;;5035440;28;20493;-71
2023/12/15 10:57:59;;;;;;;6.40;1.60;;;9.40;99.90;;;;;;5052087;28;20063;-71
2023/12/15 11:00:25;;;;;;;1.52;0.95;;;9.50;99.90;;;;;;5025371;28;20053;-71
2023/12/15 11:02:52;;;;;;;5.80;1.38;;;9.50;99.90;;;;;;5015599;28;20532;-71
2023/12/15 11:05:18;;;;;;;1.92;0.68;;;9.50;99.90;;;;;;5012856;28;20052;-70
2023/12/15 11:07:44;;;;;;;1.08;0.57;;;9.50;99.90;;;;;;5020180;28;20045;-71
2023/12/15 11:10:12;;;;;;;6.13;1.30;;;9.50;99.90;;;;;;5026247;28;20461;-71
2023/12/15 11:12:40;;;;;;;7.60;1.02;;;9.60;99.90;;;;;;5020243;28;20406;-71
2023/12/15 11:15:12;;;;;;;3.75;1.35;;;9.60;99.90;;;;;;5023514;28;20120;-71
2023/12/15 11:17:54;;;;;;;9.73;1.73;;;9.70;99.90;;;;;;5022154;28;20041;-70
2023/12/15 11:20:19;;;;;;;1.95;0.55;;;9.70;99.90;;;;;;5023763;28;20278;-71
2023/12/15 11:23:08;;;;;;;3.17;0.55;;;9.70;99.90;;;;;;5024736;28;20127;-71
2023/12/15 11:25:51;;;;;;;11.43;1.15;;;9.70;99.90;;;;;;5027323;28;20092;-71
2023/12/15 11:28:18;;;;;;;3.25;1.38;;;9.70;99.90;;;;;;5009002;28;20124;-71
2023/12/15 11:30:48;;;;;;;1.92;0.68;;;9.80;99.90;;;;;;5025260;28;20107;-70
2023/12/15 11:33:40;;;;;;;5.13;0.65;;;9.80;99.90;;;;;;5031338;28;20033;-71
2023/12/15 11:36:10;;;;;;;3.30;0.90;;;9.80;99.90;;;;;;5018782;28;20470;-70
2023/12/15 11:38:36;;;;;;;7.38;1.52;;;9.80;99.90;;;;;;5029838;28;20136;-71
2023/12/15 11:41:03;;;;;;;3.35;0.77;;;9.80;99.90;;;;;;5026575;28;20049;-70
2023/12/15 11:43:33;;;;;;;6.15;1.10;;;9.90;99.90;;;;;;5022902;28;20034;-71
2023/12/15 11:46:03;;;;;;;3.40;0.88;;;10.00;99.90;;;;;;5028002;28;20138;-68
2023/12/15 11:48:29;;;;;;;11.05;1.63;;;10.00;99.90;;;;;;5022461;28;20041;-66
2023/12/15 11:50:56;;;;;;;4.55;1.10;;;9.90;99.90;;;;;;5022267;28;20060;-68
2023/12/15 11:53:22;;;;;;;2.63;0.65;;;10.00;99.90;;;;;;5027803;28;20050;-66
2023/12/15 11:55:51;;;;;;;3.28;0.50;;;9.90;99.90;;;;;;5010393;28;20127;-66
2023/12/15 11:58:21;;;;;;;6.35;0.93;;;10.00;99.90;;;;;;5022450;28;20548;-66
2023/12/15 12:00:47;;;;;;;4.80;1.50;;;10.00;99.90;;;;;;5022580;28;20045;-67
2023/12/15 12:03:15;;;;;;;2.08;0.70;;;10.10;99.90;;;;;;5023230;28;20415;-67
2023/12/15 12:06:20;;;;;;;8.35;0.80;;;10.20;99.90;;;;;;5025510;28;20104;-66
2023/12/15 12:08:46;;;;;;;3.08;0.93;;;10.20;99.90;;;;;;4995056;28;20366;-66
2023/12/15 12:11:12;;;;;;;6.60;0.70;;;10.30;99.90;;;;;;5025523;28;20512;-66
2023/12/15 12:14:08;;;;;;;10.18;1.13;;;10.40;99.90;;;;;;5026742;28;22152;-66
2023/12/15 12:16:34;;;;;;;5.68;0.75;;;10.40;99.90;;;;;;5020959;28;20049;-71
2023/12/15 12:19:01;;;;;;;3.30;1.00;;;10.40;99.90;;;;;;5023184;28;20049;-70
2023/12/15 12:21:27;;;;;;;5.50;0.90;;;10.50;99.90;;;;;;5009647;28;20183;-71
2023/12/15 12:23:53;;;;;;;9.68;1.85;;;10.50;99.90;;;;;;5018886;28;20122;-71
2023/12/15 12:26:18;;;;;;;3.55;0.88;;;10.60;99.90;;;;;;5024061;28;20029;-70
2023/12/15 12:28:48;;;;;;;6.55;1.08;;;10.60;99.90;;;;;;5024196;28;20034;-70
2023/12/15 12:31:17;;;;;;;6.07;1.13;;;10.70;99.90;;;;;;5018149;28;20528;-71
2023/12/15 12:33:43;;;;;;;6.88;1.20;;;10.70;99.90;;;;;;5020427;28;20045;-71
2023/12/15 12:36:09;;;;;;;4.32;0.80;;;10.70;99.90;;;;;;5014734;28;20038;-71
2023/12/15 12:38:35;;;;;;;2.90;0.43;;;10.70;99.90;;;;;;5021613;28;20060;-71
2023/12/15 12:41:05;;;;;;;8.25;0.82;;;10.80;99.90;;;;;;5020485;28;20184;-70
2023/12/15 12:43:31;;;;;;;4.13;1.20;;;10.80;99.90;;;;;;5026701;28;20517;-71
2023/12/15 12:45:57;;;;;;;5.72;0.63;;;10.80;99.90;;;;;;5044938;28;20041;-72
2023/12/15 12:48:23;;;;;;;7.90;1.15;;;10.70;99.90;;;;;;5024227;28;20375;-71
2023/12/15 12:50:49;;;;;;;2.78;0.60;;;10.70;99.90;;;;;;5023007;28;20041;-71
2023/12/15 12:53:15;;;;;;;1.58;0.30;;;10.70;99.90;;;;;;5018104;28;20041;-71